sensor_id;sensor_type;location;lat;lon;timestamp;temperature;humidity
23681;DHT22;62915;50.832;4.462;2023-11-18T00:01:25;8.80;99.90
23681;DHT22;62915;50.832;4.462;2023-11-18T00:03:51;8.80;99.90
23681;DHT22;62915;50.832;4.462;2023-11-18T00:06:17;8.80;99.90
23681;DHT22;62915;50.832;4.462;2023-11-18T00:08:42;8.70;99.90
23681;DHT22;62915;50.832;4.462;2023-11-18T00:11:09;8.60;99.90
23681;DHT22;62915;50.832;4.462;2023-11-18T00:13:36;8.50;99.90
23681;DHT22;62915;50.832;4.462;2023-11-18T00:16:11;8.50;99.90
23681;DHT22;62915;50.832;4.462;2023-11-18T00:18:44;8.40;99.90
23681;DHT22;62915;50.832;4.462;2023-11-18T00:21:10;8.50;99.90
23681;DHT22;62915;50.832;4.462;2023-11-18T00:23:35;8.40;99.90
23681;DHT22;62915;50.832;4.462;2023-11-18T00:26:01;8.40;99.90
23681;DHT22;62915;50.832;4.462;2023-11-18T00:28:28;8.30;99.90
23681;DHT22;62915;50.832;4.462;2023-11-18T00:30:54;8.20;99.90
23681;DHT22;62915;50.832;4.462;2023-11-18T00:33:19;8.20;99.90
23681;DHT22;62915;50.832;4.462;2023-11-18T00:35:45;8.10;99.90
23681;DHT22;62915;50.832;4.462;2023-11-18T00:38:11;8.20;99.90
23681;DHT22;62915;50.832;4.462;2023-11-18T00:40:37;8.30;99.90
23681;DHT22;62915;50.832;4.462;2023-11-18T00:43:04;8.30;99.90
23681;DHT22;62915;50.832;4.462;2023-11-18T00:45:30;8.30;99.90
23681;DHT22;62915;50.832;4.462;2023-11-18T00:47:56;8.40;99.90
23681;DHT22;62915;50.832;4.462;2023-11-18T00:50:21;8.50;99.90
23681;DHT22;62915;50.832;4.462;2023-11-18T00:52:48;8.40;99.90
23681;DHT22;62915;50.832;4.462;2023-11-18T00:55:15;8.30;99.90
23681;DHT22;62915;50.832;4.462;2023-11-18T00:57:44;8.40;99.90
23681;DHT22;62915;50.832;4.462;2023-11-18T01:00:13;8.30;99.90
23681;DHT22;62915;50.832;4.462;2023-11-18T01:02:45;8.40;99.90
23681;DHT22;62915;50.832;4.462;2023-11-18T01:05:13;8.40;99.90
23681;DHT22;62915;50.832;4.462;2023-11-18T01:07:39;8.40;99.90
23681;DHT22;62915;50.832;4.462;2023-11-18T01:10:06;8.40;99.90
23681;DHT22;62915;50.832;4.462;2023-11-18T01:12:33;8.30;99.90
23681;DHT22;62915;50.832;4.462;2023-11-18T01:14:59;8.30;99.90
23681;DHT22;62915;50.832;4.462;2023-11-18T01:17:25;8.30;99.90
23681;DHT22;62915;50.832;4.462;2023-11-18T01:19:50;8.40;99.90
23681;DHT22;62915;50.832;4.462;2023-11-18T01:22:16;8.30;99.90
23681;DHT22;62915;50.832;4.462;2023-11-18T01:24:44;8.40;99.90
23681;DHT22;62915;50.832;4.462;2023-11-18T01:27:10;8.50;99.90
23681;DHT22;62915;50.832;4.462;2023-11-18T01:29:36;8.50;99.90
23681;DHT22;62915;50.832;4.462;2023-11-18T01:32:02;8.50;99.90
23681;DHT22;62915;50.832;4.462;2023-11-18T01:34:35;8.50;99.90
23681;DHT22;62915;50.832;4.462;2023-11-18T01:37:01;8.60;99.90
23681;DHT22;62915;50.832;4.462;2023-11-18T01:39:28;8.40;99.90
23681;DHT22;62915;50.832;4.462;2023-11-18T01:41:55;8.40;99.90
23681;DHT22;62915;50.832;4.462;2023-11-18T01:44:21;8.40;99.90
23681;DHT22;62915;50.832;4.462;2023-11-18T01:46:49;8.40;99.90
23681;DHT22;62915;50.832;4.462;2023-11-18T01:49:16;8.40;99.90
23681;DHT22;62915;50.832;4.462;2023-11-18T01:51:45;8.40;99.90
23681;DHT22;62915;50.832;4.462;2023-11-18T01:54:12;8.40;99.90
23681;DHT22;62915;50.832;4.462;2023-11-18T01:56:43;8.50;99.90
23681;DHT22;62915;50.832;4.462;2023-11-18T01:59:11;8.60;99.90
23681;DHT22;62915;50.832;4.462;2023-11-18T02:01:47;8.60;99.90
23681;DHT22;62915;50.832;4.462;2023-11-18T02:04:15;8.70;99.90
23681;DHT22;62915;50.832;4.462;2023-11-18T02:06:41;8.60;99.90
23681;DHT22;62915;50.832;4.462;2023-11-18T02:09:07;8.60;99.90
23681;DHT22;62915;50.832;4.462;2023-11-18T02:11:39;8.70;99.90
23681;DHT22;62915;50.832;4.462;2023-11-18T02:14:08;8.70;99.90
23681;DHT22;62915;50.832;4.462;2023-11-18T02:16:40;8.70;99.90
23681;DHT22;62915;50.832;4.462;2023-11-18T02:19:16;8.90;99.90
23681;DHT22;62915;50.832;4.462;2023-11-18T02:21:44;8.70;99.90
23681;DHT22;62915;50.832;4.462;2023-11-18T02:24:11;8.60;99.90
23681;DHT22;62915;50.832;4.462;2023-11-18T02:26:49;8.60;99.90
23681;DHT22;62915;50.832;4.462;2023-11-18T02:29:15;8.60;99.90
23681;DHT22;62915;50.832;4.462;2023-11-18T02:31:41;8.50;99.90
23681;DHT22;62915;50.832;4.462;2023-11-18T02:34:15;8.60;99.90
23681;DHT22;62915;50.832;4.462;2023-11-18T02:36:46;8.40;99.90
23681;DHT22;62915;50.832;4.462;2023-11-18T02:39:27;8.50;99.90
23681;DHT22;62915;50.832;4.462;2023-11-18T02:41:54;8.50;99.90
23681;DHT22;62915;50.832;4.462;2023-11-18T02:44:26;8.60;99.90
23681;DHT22;62915;50.832;4.462;2023-11-18T02:46:53;8.50;99.90
23681;DHT22;62915;50.832;4.462;2023-11-18T02:49:20;8.60;99.90
23681;DHT22;62915;50.832;4.462;2023-11-18T02:51:45;8.50;99.90
23681;DHT22;62915;50.832;4.462;2023-11-18T02:54:13;8.50;99.90
23681;DHT22;62915;50.832;4.462;2023-11-18T02:56:39;8.50;99.90
23681;DHT22;62915;50.832;4.462;2023-11-18T02:59:05;8.60;99.90
23681;DHT22;62915;50.832;4.462;2023-11-18T03:01:32;8.60;99.90
23681;DHT22;62915;50.832;4.462;2023-11-18T03:03:59;8.60;99.90
23681;DHT22;62915;50.832;4.462;2023-11-18T03:06:26;8.60;99.90
23681;DHT22;62915;50.832;4.462;2023-11-18T03:08:52;8.60;99.90
23681;DHT22;62915;50.832;4.462;2023-11-18T03:11:21;8.50;99.90
23681;DHT22;62915;50.832;4.462;2023-11-18T03:13:48;8.60;99.90
23681;DHT22;62915;50.832;4.462;2023-11-18T03:16:15;8.50;99.90
23681;DHT22;62915;50.832;4.462;2023-11-18T03:18:43;8.50;99.90
23681;DHT22;62915;50.832;4.462;2023-11-18T03:21:12;8.40;99.90
23681;DHT22;62915;50.832;4.462;2023-11-18T03:23:42;8.40;99.90
23681;DHT22;62915;50.832;4.462;2023-11-18T03:26:08;8.40;99.90
23681;DHT22;62915;50.832;4.462;2023-11-18T03:28:36;8.30;99.90
23681;DHT22;62915;50.832;4.462;2023-11-18T03:31:05;8.30;99.90
23681;DHT22;62915;50.832;4.462;2023-11-18T03:33:31;8.30;99.90
23681;DHT22;62915;50.832;4.462;2023-11-18T03:35:57;8.20;99.90
23681;DHT22;62915;50.832;4.462;2023-11-18T03:38:24;8.30;99.90
23681;DHT22;62915;50.832;4.462;2023-11-18T03:40:50;8.30;99.90
23681;DHT22;62915;50.832;4.462;2023-11-18T03:43:18;8.30;99.90
23681;DHT22;62915;50.832;4.462;2023-11-18T03:45:45;8.30;99.90
23681;DHT22;62915;50.832;4.462;2023-11-18T03:48:11;8.40;99.90
23681;DHT22;62915;50.832;4.462;2023-11-18T03:50:40;8.40;99.90
23681;DHT22;62915;50.832;4.462;2023-11-18T03:53:06;8.40;99.90
23681;DHT22;62915;50.832;4.462;2023-11-18T03:55:32;8.40;99.90
23681;DHT22;62915;50.832;4.462;2023-11-18T03:57:59;8.30;99.90
23681;DHT22;62915;50.832;4.462;2023-11-18T04:00:25;8.40;99.90
23681;DHT22;62915;50.832;4.462;2023-11-18T04:02:57;8.40;99.90
23681;DHT22;62915;50.832;4.462;2023-11-18T04:05:23;8.40;99.90
23681;DHT22;62915;50.832;4.462;2023-11-18T04:07:49;8.40;99.90
23681;DHT22;62915;50.832;4.462;2023-11-18T04:10:15;8.30;99.90
23681;DHT22;62915;50.832;4.462;2023-11-18T04:12:40;8.10;99.90
23681;DHT22;62915;50.832;4.462;2023-11-18T04:15:15;8.20;99.90
23681;DHT22;62915;50.832;4.462;2023-11-18T04:17:43;8.20;99.90
23681;DHT22;62915;50.832;4.462;2023-11-18T04:20:10;8.10;99.90
23681;DHT22;62915;50.832;4.462;2023-11-18T04:22:43;8.20;99.90
23681;DHT22;62915;50.832;4.462;2023-11-18T04:25:09;8.20;99.90
23681;DHT22;62915;50.832;4.462;2023-11-18T04:27:37;8.20;99.90
23681;DHT22;62915;50.832;4.462;2023-11-18T04:30:03;8.30;99.90
23681;DHT22;62915;50.832;4.462;2023-11-18T04:32:29;8.30;99.90
23681;DHT22;62915;50.832;4.462;2023-11-18T04:34:58;8.30;99.90
23681;DHT22;62915;50.832;4.462;2023-11-18T04:37:26;8.30;99.90
23681;DHT22;62915;50.832;4.462;2023-11-18T04:39:52;8.40;99.90
23681;DHT22;62915;50.832;4.462;2023-11-18T04:42:20;8.40;99.90
23681;DHT22;62915;50.832;4.462;2023-11-18T04:44:46;8.40;99.90
23681;DHT22;62915;50.832;4.462;2023-11-18T04:47:12;8.50;99.90
23681;DHT22;62915;50.832;4.462;2023-11-18T04:49:38;8.50;99.90
23681;DHT22;62915;50.832;4.462;2023-11-18T04:52:04;8.50;99.90
23681;DHT22;62915;50.832;4.462;2023-11-18T04:54:31;8.50;99.90
23681;DHT22;62915;50.832;4.462;2023-11-18T04:56:57;8.50;99.90
23681;DHT22;62915;50.832;4.462;2023-11-18T04:59:23;8.50;99.90
23681;DHT22;62915;50.832;4.462;2023-11-18T05:01:49;8.50;99.90
23681;DHT22;62915;50.832;4.462;2023-11-18T05:04:18;8.50;99.90
23681;DHT22;62915;50.832;4.462;2023-11-18T05:06:44;8.50;99.90
23681;DHT22;62915;50.832;4.462;2023-11-18T05:09:10;8.50;99.90
23681;DHT22;62915;50.832;4.462;2023-11-18T05:11:35;8.40;99.90
23681;DHT22;62915;50.832;4.462;2023-11-18T05:14:01;8.50;99.90
23681;DHT22;62915;50.832;4.462;2023-11-18T05:16:29;8.60;99.90
23681;DHT22;62915;50.832;4.462;2023-11-18T05:18:55;8.60;99.90
23681;DHT22;62915;50.832;4.462;2023-11-18T05:21:21;8.70;99.90
23681;DHT22;62915;50.832;4.462;2023-11-18T05:23:47;8.50;99.90
23681;DHT22;62915;50.832;4.462;2023-11-18T05:26:14;8.60;99.90
23681;DHT22;62915;50.832;4.462;2023-11-18T05:28:40;8.60;99.90
23681;DHT22;62915;50.832;4.462;2023-11-18T05:31:05;8.50;99.90
23681;DHT22;62915;50.832;4.462;2023-11-18T05:33:31;8.60;99.90
23681;DHT22;62915;50.832;4.462;2023-11-18T05:35:59;8.70;99.90
23681;DHT22;62915;50.832;4.462;2023-11-18T05:38:25;8.70;99.90
23681;DHT22;62915;50.832;4.462;2023-11-18T05:40:53;8.60;99.90
23681;DHT22;62915;50.832;4.462;2023-11-18T05:43:27;8.60;99.90
23681;DHT22;62915;50.832;4.462;2023-11-18T05:45:57;8.70;99.90
23681;DHT22;62915;50.832;4.462;2023-11-18T05:48:47;8.60;99.90
23681;DHT22;62915;50.832;4.462;2023-11-18T05:51:13;8.70;99.90
23681;DHT22;62915;50.832;4.462;2023-11-18T05:53:43;8.60;99.90
23681;DHT22;62915;50.832;4.462;2023-11-18T05:56:14;8.60;99.90
23681;DHT22;62915;50.832;4.462;2023-11-18T05:58:42;8.60;99.90
23681;DHT22;62915;50.832;4.462;2023-11-18T06:01:12;8.50;99.90
23681;DHT22;62915;50.832;4.462;2023-11-18T06:03:39;8.60;99.90
23681;DHT22;62915;50.832;4.462;2023-11-18T06:06:09;8.70;99.90
23681;DHT22;62915;50.832;4.462;2023-11-18T06:08:38;8.60;99.90
23681;DHT22;62915;50.832;4.462;2023-11-18T06:11:10;8.70;99.90
23681;DHT22;62915;50.832;4.462;2023-11-18T06:13:41;8.70;99.90
23681;DHT22;62915;50.832;4.462;2023-11-18T06:16:18;8.80;99.90
23681;DHT22;62915;50.832;4.462;2023-11-18T06:18:46;8.80;99.90
23681;DHT22;62915;50.832;4.462;2023-11-18T06:21:12;8.80;99.90
23681;DHT22;62915;50.832;4.462;2023-11-18T06:23:39;8.60;99.90
23681;DHT22;62915;50.832;4.462;2023-11-18T06:26:06;8.70;99.90
23681;DHT22;62915;50.832;4.462;2023-11-18T06:28:32;8.70;99.90
23681;DHT22;62915;50.832;4.462;2023-11-18T06:30:59;8.70;99.90
23681;DHT22;62915;50.832;4.462;2023-11-18T06:33:26;8.80;99.90
23681;DHT22;62915;50.832;4.462;2023-11-18T06:35:53;8.80;99.90
23681;DHT22;62915;50.832;4.462;2023-11-18T06:38:21;8.80;99.90
23681;DHT22;62915;50.832;4.462;2023-11-18T06:40:46;8.80;99.90
23681;DHT22;62915;50.832;4.462;2023-11-18T06:43:12;8.90;99.90
23681;DHT22;62915;50.832;4.462;2023-11-18T06:45:42;8.90;99.90
23681;DHT22;62915;50.832;4.462;2023-11-18T06:48:09;8.90;99.90
23681;DHT22;62915;50.832;4.462;2023-11-18T06:50:34;8.80;99.90
23681;DHT22;62915;50.832;4.462;2023-11-18T06:53:01;8.80;99.90
23681;DHT22;62915;50.832;4.462;2023-11-18T06:55:27;8.80;99.90
23681;DHT22;62915;50.832;4.462;2023-11-18T06:57:53;8.80;99.90
23681;DHT22;62915;50.832;4.462;2023-11-18T07:00:22;8.80;99.90
23681;DHT22;62915;50.832;4.462;2023-11-18T07:02:48;8.80;99.90
23681;DHT22;62915;50.832;4.462;2023-11-18T07:05:14;8.80;99.90
23681;DHT22;62915;50.832;4.462;2023-11-18T07:07:41;9.00;99.90
23681;DHT22;62915;50.832;4.462;2023-11-18T07:10:08;9.00;99.90
23681;DHT22;62915;50.832;4.462;2023-11-18T07:12:39;8.90;99.90
23681;DHT22;62915;50.832;4.462;2023-11-18T07:15:05;9.00;99.90
23681;DHT22;62915;50.832;4.462;2023-11-18T07:17:32;9.10;99.90
23681;DHT22;62915;50.832;4.462;2023-11-18T07:20:00;9.00;99.90
23681;DHT22;62915;50.832;4.462;2023-11-18T07:22:25;9.10;99.90
23681;DHT22;62915;50.832;4.462;2023-11-18T07:24:52;9.10;99.90
23681;DHT22;62915;50.832;4.462;2023-11-18T07:27:18;9.10;99.90
23681;DHT22;62915;50.832;4.462;2023-11-18T07:29:43;9.10;99.90
23681;DHT22;62915;50.832;4.462;2023-11-18T07:32:11;9.10;99.90
23681;DHT22;62915;50.832;4.462;2023-11-18T07:34:36;9.20;99.90
23681;DHT22;62915;50.832;4.462;2023-11-18T07:37:03;9.20;99.90
23681;DHT22;62915;50.832;4.462;2023-11-18T07:39:29;9.20;99.90
23681;DHT22;62915;50.832;4.462;2023-11-18T07:42:12;9.10;99.90
23681;DHT22;62915;50.832;4.462;2023-11-18T07:44:39;9.10;99.90
23681;DHT22;62915;50.832;4.462;2023-11-18T07:47:05;9.10;99.90
23681;DHT22;62915;50.832;4.462;2023-11-18T07:49:34;9.20;99.90
23681;DHT22;62915;50.832;4.462;2023-11-18T07:52:01;9.10;99.90
23681;DHT22;62915;50.832;4.462;2023-11-18T07:54:27;9.10;99.90
23681;DHT22;62915;50.832;4.462;2023-11-18T07:56:53;9.00;99.90
23681;DHT22;62915;50.832;4.462;2023-11-18T07:59:20;9.10;99.90
23681;DHT22;62915;50.832;4.462;2023-11-18T08:01:45;9.00;99.90
23681;DHT22;62915;50.832;4.462;2023-11-18T08:04:12;9.10;99.90
23681;DHT22;62915;50.832;4.462;2023-11-18T08:06:40;9.10;99.90
23681;DHT22;62915;50.832;4.462;2023-11-18T08:09:06;9.00;99.90
23681;DHT22;62915;50.832;4.462;2023-11-18T08:11:40;9.10;99.90
23681;DHT22;62915;50.832;4.462;2023-11-18T08:14:09;9.10;99.90
23681;DHT22;62915;50.832;4.462;2023-11-18T08:16:36;9.20;99.90
23681;DHT22;62915;50.832;4.462;2023-11-18T08:19:01;9.20;99.90
23681;DHT22;62915;50.832;4.462;2023-11-18T08:21:34;9.20;99.90
23681;DHT22;62915;50.832;4.462;2023-11-18T08:24:00;9.20;99.90
23681;DHT22;62915;50.832;4.462;2023-11-18T08:26:27;9.10;99.90
23681;DHT22;62915;50.832;4.462;2023-11-18T08:28:53;9.10;99.90
23681;DHT22;62915;50.832;4.462;2023-11-18T08:31:19;9.00;99.90
23681;DHT22;62915;50.832;4.462;2023-11-18T08:33:46;9.10;99.90
23681;DHT22;62915;50.832;4.462;2023-11-18T08:36:14;9.10;99.90
23681;DHT22;62915;50.832;4.462;2023-11-18T08:38:40;9.10;99.90
23681;DHT22;62915;50.832;4.462;2023-11-18T08:41:09;9.00;99.90
23681;DHT22;62915;50.832;4.462;2023-11-18T08:43:35;9.10;99.90
23681;DHT22;62915;50.832;4.462;2023-11-18T08:46:01;9.10;99.90
23681;DHT22;62915;50.832;4.462;2023-11-18T08:48:27;9.00;99.90
23681;DHT22;62915;50.832;4.462;2023-11-18T08:50:54;9.10;99.90
23681;DHT22;62915;50.832;4.462;2023-11-18T08:53:19;9.20;99.90
23681;DHT22;62915;50.832;4.462;2023-11-18T08:55:51;9.10;99.90
23681;DHT22;62915;50.832;4.462;2023-11-18T08:58:19;9.10;99.90
23681;DHT22;62915;50.832;4.462;2023-11-18T09:00:52;9.10;99.90
23681;DHT22;62915;50.832;4.462;2023-11-18T09:03:26;9.20;99.90
23681;DHT22;62915;50.832;4.462;2023-11-18T09:06:02;9.30;99.90
23681;DHT22;62915;50.832;4.462;2023-11-18T09:08:37;9.30;99.90
23681;DHT22;62915;50.832;4.462;2023-11-18T09:11:15;9.20;99.90
23681;DHT22;62915;50.832;4.462;2023-11-18T09:13:43;9.30;99.90
23681;DHT22;62915;50.832;4.462;2023-11-18T09:16:12;9.30;99.90
23681;DHT22;62915;50.832;4.462;2023-11-18T09:18:40;9.40;99.90
23681;DHT22;62915;50.832;4.462;2023-11-18T09:21:06;9.30;99.90
23681;DHT22;62915;50.832;4.462;2023-11-18T09:23:33;9.20;99.90
23681;DHT22;62915;50.832;4.462;2023-11-18T09:26:03;9.20;99.90
23681;DHT22;62915;50.832;4.462;2023-11-18T09:28:36;9.20;99.90
23681;DHT22;62915;50.832;4.462;2023-11-18T09:31:04;9.10;99.90
23681;DHT22;62915;50.832;4.462;2023-11-18T09:33:32;9.20;99.90
23681;DHT22;62915;50.832;4.462;2023-11-18T09:36:03;9.20;99.90
23681;DHT22;62915;50.832;4.462;2023-11-18T09:38:37;9.20;99.90
23681;DHT22;62915;50.832;4.462;2023-11-18T09:41:07;9.10;99.90
23681;DHT22;62915;50.832;4.462;2023-11-18T09:43:40;9.10;99.90
23681;DHT22;62915;50.832;4.462;2023-11-18T09:46:17;9.20;99.90
23681;DHT22;62915;50.832;4.462;2023-11-18T09:49:01;9.30;99.90
23681;DHT22;62915;50.832;4.462;2023-11-18T09:51:43;9.20;99.90
23681;DHT22;62915;50.832;4.462;2023-11-18T09:54:20;9.20;99.90
23681;DHT22;62915;50.832;4.462;2023-11-18T09:57:16;9.20;99.90
23681;DHT22;62915;50.832;4.462;2023-11-18T10:00:06;9.20;99.90
23681;DHT22;62915;50.832;4.462;2023-11-18T10:02:53;9.30;99.90
23681;DHT22;62915;50.832;4.462;2023-11-18T10:05:25;9.30;99.90
23681;DHT22;62915;50.832;4.462;2023-11-18T10:08:02;9.30;99.90
23681;DHT22;62915;50.832;4.462;2023-11-18T10:10:32;9.30;99.90
23681;DHT22;62915;50.832;4.462;2023-11-18T10:13:03;9.20;99.90
23681;DHT22;62915;50.832;4.462;2023-11-18T10:15:35;9.20;99.90
23681;DHT22;62915;50.832;4.462;2023-11-18T10:18:04;9.10;99.90
23681;DHT22;62915;50.832;4.462;2023-11-18T10:20:46;9.20;99.90
23681;DHT22;62915;50.832;4.462;2023-11-18T10:23:14;9.20;99.90
23681;DHT22;62915;50.832;4.462;2023-11-18T10:28:44;9.30;99.90
23681;DHT22;62915;50.832;4.462;2023-11-18T10:31:09;9.20;99.90
23681;DHT22;62915;50.832;4.462;2023-11-18T10:33:43;9.20;99.90
23681;DHT22;62915;50.832;4.462;2023-11-18T10:36:29;9.20;99.90
23681;DHT22;62915;50.832;4.462;2023-11-18T10:38:58;9.20;99.90
23681;DHT22;62915;50.832;4.462;2023-11-18T10:41:26;9.20;99.90
23681;DHT22;62915;50.832;4.462;2023-11-18T10:44:08;9.30;99.90
23681;DHT22;62915;50.832;4.462;2023-11-18T10:46:50;9.30;99.90
23681;DHT22;62915;50.832;4.462;2023-11-18T10:49:16;9.40;99.90
23681;DHT22;62915;50.832;4.462;2023-11-18T10:51:44;9.30;99.90
23681;DHT22;62915;50.832;4.462;2023-11-18T10:54:13;9.40;99.90
23681;DHT22;62915;50.832;4.462;2023-11-18T10:56:51;9.40;99.90
23681;DHT22;62915;50.832;4.462;2023-11-18T10:59:22;9.40;99.90
23681;DHT22;62915;50.832;4.462;2023-11-18T11:01:48;9.40;99.90
23681;DHT22;62915;50.832;4.462;2023-11-18T11:04:15;9.40;99.90
23681;DHT22;62915;50.832;4.462;2023-11-18T11:06:49;9.50;99.90
23681;DHT22;62915;50.832;4.462;2023-11-18T11:09:22;9.50;99.90
23681;DHT22;62915;50.832;4.462;2023-11-18T11:11:57;9.50;99.90
23681;DHT22;62915;50.832;4.462;2023-11-18T11:14:34;9.60;99.90
23681;DHT22;62915;50.832;4.462;2023-11-18T11:17:08;9.60;99.90
23681;DHT22;62915;50.832;4.462;2023-11-18T11:20:06;9.70;99.90
23681;DHT22;62915;50.832;4.462;2023-11-18T11:26:00;9.70;99.90
23681;DHT22;62915;50.832;4.462;2023-11-18T11:28:23;9.60;99.90
23681;DHT22;62915;50.832;4.462;2023-11-18T11:30:50;9.60;99.90
23681;DHT22;62915;50.832;4.462;2023-11-18T11:33:42;9.60;99.90
23681;DHT22;62915;50.832;4.462;2023-11-18T11:36:17;9.70;99.90
23681;DHT22;62915;50.832;4.462;2023-11-18T11:38:44;9.60;99.90
23681;DHT22;62915;50.832;4.462;2023-11-18T11:41:13;9.70;99.90
23681;DHT22;62915;50.832;4.462;2023-11-18T11:43:49;9.70;99.90
23681;DHT22;62915;50.832;4.462;2023-11-18T11:46:16;9.70;99.90
23681;DHT22;62915;50.832;4.462;2023-11-18T11:48:49;9.60;99.90
23681;DHT22;62915;50.832;4.462;2023-11-18T11:51:37;9.70;99.90
23681;DHT22;62915;50.832;4.462;2023-11-18T11:54:15;9.70;99.90
23681;DHT22;62915;50.832;4.462;2023-11-18T11:56:45;9.70;99.90
23681;DHT22;62915;50.832;4.462;2023-11-18T11:59:53;9.80;99.90
23681;DHT22;62915;50.832;4.462;2023-11-18T12:02:22;9.70;99.90
23681;DHT22;62915;50.832;4.462;2023-11-18T12:04:55;9.80;99.90
23681;DHT22;62915;50.832;4.462;2023-11-18T12:07:25;9.80;99.90
23681;DHT22;62915;50.832;4.462;2023-11-18T12:09:59;9.80;99.90
23681;DHT22;62915;50.832;4.462;2023-11-18T12:12:27;9.70;99.90
23681;DHT22;62915;50.832;4.462;2023-11-18T12:14:59;9.80;99.90
23681;DHT22;62915;50.832;4.462;2023-11-18T12:20:42;9.90;99.90
23681;DHT22;62915;50.832;4.462;2023-11-18T12:23:10;9.80;99.90
23681;DHT22;62915;50.832;4.462;2023-11-18T12:25:47;9.80;99.90
23681;DHT22;62915;50.832;4.462;2023-11-18T12:28:30;9.80;99.90
23681;DHT22;62915;50.832;4.462;2023-11-18T12:31:39;9.80;99.90
23681;DHT22;62915;50.832;4.462;2023-11-18T12:34:06;9.90;99.90
23681;DHT22;62915;50.832;4.462;2023-11-18T12:37:17;9.90;99.90
23681;DHT22;62915;50.832;4.462;2023-11-18T12:40:01;9.90;99.90
23681;DHT22;62915;50.832;4.462;2023-11-18T12:43:01;9.80;99.90
23681;DHT22;62915;50.832;4.462;2023-11-18T12:46:06;9.90;99.90
23681;DHT22;62915;50.832;4.462;2023-11-18T12:48:43;9.80;99.90
23681;DHT22;62915;50.832;4.462;2023-11-18T12:51:12;9.70;99.90
23681;DHT22;62915;50.832;4.462;2023-11-18T12:53:48;9.80;99.90
23681;DHT22;62915;50.832;4.462;2023-11-18T12:56:21;9.90;99.90
23681;DHT22;62915;50.832;4.462;2023-11-18T12:58:50;10.00;99.90
23681;DHT22;62915;50.832;4.462;2023-11-18T13:01:23;9.90;99.90
23681;DHT22;62915;50.832;4.462;2023-11-18T13:03:49;9.90;99.90
23681;DHT22;62915;50.832;4.462;2023-11-18T13:06:14;9.90;99.90
23681;DHT22;62915;50.832;4.462;2023-11-18T13:08:41;9.90;99.90
23681;DHT22;62915;50.832;4.462;2023-11-18T13:11:08;9.90;99.90
23681;DHT22;62915;50.832;4.462;2023-11-18T13:13:42;9.90;99.90
23681;DHT22;62915;50.832;4.462;2023-11-18T13:16:08;9.90;99.90
23681;DHT22;62915;50.832;4.462;2023-11-18T13:18:48;9.90;99.90
23681;DHT22;62915;50.832;4.462;2023-11-18T13:21:18;9.90;99.90
23681;DHT22;62915;50.832;4.462;2023-11-18T13:23:49;9.90;99.90
23681;DHT22;62915;50.832;4.462;2023-11-18T13:26:16;9.90;99.90
23681;DHT22;62915;50.832;4.462;2023-11-18T13:28:42;10.00;99.90
23681;DHT22;62915;50.832;4.462;2023-11-18T13:31:11;10.00;99.90
23681;DHT22;62915;50.832;4.462;2023-11-18T13:33:48;10.10;99.90
23681;DHT22;62915;50.832;4.462;2023-11-18T13:36:16;10.10;99.90
23681;DHT22;62915;50.832;4.462;2023-11-18T13:38:42;10.20;99.90
23681;DHT22;62915;50.832;4.462;2023-11-18T13:41:09;10.10;99.90
23681;DHT22;62915;50.832;4.462;2023-11-18T13:43:45;10.20;99.90
23681;DHT22;62915;50.832;4.462;2023-11-18T13:46:19;10.10;99.90
23681;DHT22;62915;50.832;4.462;2023-11-18T13:48:48;10.10;99.90
23681;DHT22;62915;50.832;4.462;2023-11-18T13:51:19;10.20;99.90
23681;DHT22;62915;50.832;4.462;2023-11-18T13:53:45;10.30;99.90
23681;DHT22;62915;50.832;4.462;2023-11-18T13:56:13;10.40;99.90
23681;DHT22;62915;50.832;4.462;2023-11-18T13:58:39;10.30;99.90
23681;DHT22;62915;50.832;4.462;2023-11-18T14:01:10;10.40;99.90
23681;DHT22;62915;50.832;4.462;2023-11-18T14:03:39;10.40;99.90
23681;DHT22;62915;50.832;4.462;2023-11-18T14:06:09;10.30;99.90
23681;DHT22;62915;50.832;4.462;2023-11-18T14:08:43;10.40;99.90
23681;DHT22;62915;50.832;4.462;2023-11-18T14:11:10;10.40;99.90
23681;DHT22;62915;50.832;4.462;2023-11-18T14:13:36;10.40;99.90
23681;DHT22;62915;50.832;4.462;2023-11-18T14:16:03;10.30;99.90
23681;DHT22;62915;50.832;4.462;2023-11-18T14:18:29;10.30;99.90
23681;DHT22;62915;50.832;4.462;2023-11-18T14:20:56;10.20;99.90
23681;DHT22;62915;50.832;4.462;2023-11-18T14:23:22;10.20;99.90
23681;DHT22;62915;50.832;4.462;2023-11-18T14:25:49;10.30;99.90
23681;DHT22;62915;50.832;4.462;2023-11-18T14:28:15;10.40;99.90
23681;DHT22;62915;50.832;4.462;2023-11-18T14:30:40;10.50;99.90
23681;DHT22;62915;50.832;4.462;2023-11-18T14:33:07;10.50;99.90
23681;DHT22;62915;50.832;4.462;2023-11-18T14:35:33;10.60;99.90
23681;DHT22;62915;50.832;4.462;2023-11-18T14:38:00;10.50;99.90
23681;DHT22;62915;50.832;4.462;2023-11-18T14:40:26;10.50;99.90
23681;DHT22;62915;50.832;4.462;2023-11-18T14:42:53;10.60;99.90
23681;DHT22;62915;50.832;4.462;2023-11-18T14:45:20;10.50;99.90
23681;DHT22;62915;50.832;4.462;2023-11-18T14:47:47;10.60;99.90
23681;DHT22;62915;50.832;4.462;2023-11-18T14:50:19;10.70;99.90
23681;DHT22;62915;50.832;4.462;2023-11-18T14:52:49;10.70;99.90
23681;DHT22;62915;50.832;4.462;2023-11-18T14:55:18;10.70;99.90
23681;DHT22;62915;50.832;4.462;2023-11-18T14:57:44;10.80;99.90
23681;DHT22;62915;50.832;4.462;2023-11-18T15:00:12;10.70;99.90
23681;DHT22;62915;50.832;4.462;2023-11-18T15:02:51;10.70;99.90
23681;DHT22;62915;50.832;4.462;2023-11-18T15:05:18;10.70;99.90
23681;DHT22;62915;50.832;4.462;2023-11-18T15:07:48;10.90;99.90
23681;DHT22;62915;50.832;4.462;2023-11-18T15:10:16;10.90;99.90
23681;DHT22;62915;50.832;4.462;2023-11-18T15:12:47;10.90;99.90
23681;DHT22;62915;50.832;4.462;2023-11-18T15:15:14;10.80;99.90
23681;DHT22;62915;50.832;4.462;2023-11-18T15:17:45;10.80;99.90
23681;DHT22;62915;50.832;4.462;2023-11-18T15:20:12;10.70;99.90
23681;DHT22;62915;50.832;4.462;2023-11-18T15:22:38;10.80;99.90
23681;DHT22;62915;50.832;4.462;2023-11-18T15:25:05;10.90;99.90
23681;DHT22;62915;50.832;4.462;2023-11-18T15:27:36;10.90;99.90
23681;DHT22;62915;50.832;4.462;2023-11-18T15:30:02;11.00;99.90
23681;DHT22;62915;50.832;4.462;2023-11-18T15:32:28;11.00;99.90
23681;DHT22;62915;50.832;4.462;2023-11-18T15:34:54;11.00;99.90
23681;DHT22;62915;50.832;4.462;2023-11-18T15:37:22;10.90;99.90
23681;DHT22;62915;50.832;4.462;2023-11-18T15:39:49;11.10;99.90
23681;DHT22;62915;50.832;4.462;2023-11-18T15:42:15;11.00;99.90
23681;DHT22;62915;50.832;4.462;2023-11-18T15:44:42;10.90;99.90
23681;DHT22;62915;50.832;4.462;2023-11-18T15:47:07;11.00;99.90
23681;DHT22;62915;50.832;4.462;2023-11-18T15:49:35;11.10;99.90
23681;DHT22;62915;50.832;4.462;2023-11-18T15:52:01;11.10;99.90
23681;DHT22;62915;50.832;4.462;2023-11-18T15:54:28;11.00;99.90
23681;DHT22;62915;50.832;4.462;2023-11-18T15:56:54;11.00;99.90
23681;DHT22;62915;50.832;4.462;2023-11-18T15:59:21;11.10;99.90
23681;DHT22;62915;50.832;4.462;2023-11-18T16:01:47;11.20;99.90
23681;DHT22;62915;50.832;4.462;2023-11-18T16:04:12;11.20;99.90
23681;DHT22;62915;50.832;4.462;2023-11-18T16:06:38;11.10;99.90